Time;durP1;ratioP1;P1;durP2;ratioP2;P2;SDS_P1;SDS_P2;PMS_P1;PMS_P2;Temp;Humidity;BMP_temperature;BMP_pressure;BME280_temperature;BME280_humidity;BME280_pressure;Samples;Min_cycle;Max_cycle;Signal;HPM_P1;HPM_P2
2022/08/06 00:01:03;;;;;;;2.25;1.33;;;30.70;58.00;;;;;;6276239;22;20495;-84
2022/08/06 00:03:28;;;;;;;2.10;1.23;;;30.70;58.10;;;;;;6275923;22;20465;-84
2022/08/06 00:05:54;;;;;;;2.72;1.30;;;30.70;57.90;;;;;;6276193;22;20363;-85
2022/08/06 00:08:20;;;;;;;2.00;1.52;;;30.70;58.10;;;;;;6276714;22;20414;-85
2022/08/06 00:10:46;;;;;;;1.67;1.35;;;30.70;58.10;;;;;;6277447;22;20012;-83
2022/08/06 00:13:11;;;;;;;2.50;1.40;;;30.70;58.10;;;;;;6276451;22;20008;-83
2022/08/06 00:15:37;;;;;;;2.28;1.40;;;30.70;58.00;;;;;;6275240;22;20074;-84
2022/08/06 00:18:03;;;;;;;1.38;1.20;;;30.60;57.80;;;;;;6249247;22;20000;-84
2022/08/06 00:20:29;;;;;;;2.13;1.25;;;30.60;57.70;;;;;;6277367;22;20004;-84
2022/08/06 00:22:54;;;;;;;1.52;1.42;;;30.60;57.50;;;;;;6277919;22;20000;-85
2022/08/06 00:25:20;;;;;;;1.70;1.40;;;30.60;57.40;;;;;;6277770;22;20006;-84
2022/08/06 00:27:46;;;;;;;5.63;1.70;;;30.60;57.30;;;;;;6249364;22;20334;-84
2022/08/06 00:30:12;;;;;;;2.53;1.50;;;30.60;56.80;;;;;;6249288;22;20008;-83
2022/08/06 00:32:38;;;;;;;1.63;1.52;;;30.40;57.60;;;;;;6278138;22;20007;-85
2022/08/06 00:35:04;;;;;;;6.15;1.88;;;30.40;57.30;;;;;;6276833;22;20129;-85
2022/08/06 00:37:32;;;;;;;2.45;1.80;;;30.30;58.00;;;;;;6276540;22;20375;-83
2022/08/06 00:39:59;;;;;;;1.80;1.63;;;30.20;58.50;;;;;;6276135;22;20417;-83
2022/08/06 00:42:26;;;;;;;2.72;1.90;;;30.10;58.50;;;;;;6276310;22;19996;-82
2022/08/06 00:44:52;;;;;;;5.13;1.73;;;30.10;59.30;;;;;;6277047;22;20027;-83
2022/08/06 00:47:17;;;;;;;2.10;1.90;;;30.00;59.40;;;;;;6275893;22;20003;-82
2022/08/06 00:49:43;;;;;;;3.05;1.92;;;30.00;59.70;;;;;;6275935;22;20049;-82
2022/08/06 00:52:09;;;;;;;3.60;1.90;;;29.90;60.10;;;;;;6275785;22;19996;-82
2022/08/06 00:54:34;;;;;;;2.40;1.70;;;29.90;60.20;;;;;;6276644;22;20007;-84
2022/08/06 00:57:00;;;;;;;3.97;1.98;;;29.90;60.40;;;;;;6276714;22;20000;-84
2022/08/06 00:59:26;;;;;;;2.63;2.10;;;29.90;60.90;;;;;;6276614;22;20000;-83
2022/08/06 01:01:51;;;;;;;4.20;1.80;;;29.90;60.60;;;;;;6275682;22;20000;-83
2022/08/06 01:04:18;;;;;;;1.95;1.70;;;29.90;60.60;;;;;;6276435;22;20011;-82
2022/08/06 01:06:44;;;;;;;2.95;1.90;;;29.80;60.70;;;;;;6276172;22;19999;-83
2022/08/06 01:09:10;;;;;;;3.60;2.17;;;29.80;60.70;;;;;;6276232;22;20023;-83
2022/08/06 01:11:36;;;;;;;3.15;1.90;;;29.70;60.70;;;;;;6275911;22;20003;-76
2022/08/06 01:14:01;;;;;;;4.22;1.88;;;29.80;60.80;;;;;;6275965;22;20079;-75
2022/08/06 01:16:27;;;;;;;2.72;2.15;;;29.70;60.90;;;;;;6275953;22;20094;-76
2022/08/06 01:19:16;;;;;;;5.32;2.20;;;29.70;60.90;;;;;;6276666;22;19996;-75
2022/08/06 01:21:53;;;;;;;1.90;1.75;;;29.70;61.10;;;;;;6275193;22;20410;-75
2022/08/06 01:24:49;;;;;;;3.92;1.85;;;29.70;61.00;;;;;;6276824;22;20008;-75
2022/08/06 01:27:52;;;;;;;4.47;2.03;;;29.70;61.10;;;;;;6275259;22;20061;-75
2022/08/06 01:30:20;;;;;;;3.72;2.28;;;29.70;61.10;;;;;;6275915;22;20004;-75
2022/08/06 01:33:11;;;;;;;6.78;2.17;;;29.70;61.00;;;;;;6276174;22;20000;-75
2022/08/06 01:35:42;;;;;;;3.17;1.50;;;29.70;61.00;;;;;;6264002;22;20003;-75
2022/08/06 01:38:33;;;;;;;2.08;1.67;;;29.70;61.30;;;;;;6276137;22;20418;-75
2022/08/06 01:41:04;;;;;;;2.40;1.40;;;29.70;61.30;;;;;;6249056;22;20020;-74
2022/08/06 01:43:32;;;;;;;5.25;1.98;;;29.70;61.20;;;;;;6276136;22;20004;-75
2022/08/06 01:46:00;;;;;;;2.38;2.10;;;29.60;61.30;;;;;;6275378;22;20015;-76
2022/08/06 01:48:27;;;;;;;3.28;1.60;;;29.50;61.20;;;;;;6276550;22;20000;-76
2022/08/06 01:50:55;;;;;;;5.97;2.33;;;29.60;61.30;;;;;;6276239;22;20410;-76
2022/08/06 01:53:28;;;;;;;3.38;2.13;;;29.60;61.40;;;;;;6275556;22;20576;-76
2022/08/06 01:55:58;;;;;;;3.47;2.22;;;29.50;61.30;;;;;;6276305;22;19999;-77
2022/08/06 01:58:29;;;;;;;3.67;2.05;;;29.50;61.40;;;;;;6275731;22;20024;-77
2022/08/06 02:00:56;;;;;;;4.57;2.13;;;29.40;61.30;;;;;;6275904;22;20346;-77
2022/08/06 02:03:30;;;;;;;4.63;2.15;;;29.40;61.40;;;;;;6275682;22;20097;-76
2022/08/06 02:05:57;;;;;;;2.03;1.60;;;29.40;61.70;;;;;;6249011;22;20030;-76
2022/08/06 02:08:27;;;;;;;3.58;1.88;;;29.40;61.50;;;;;;6275471;22;20004;-77
2022/08/06 02:10:54;;;;;;;;;;;29.40;61.50;;;;;;6277056;22;20015;-76
2022/08/06 02:13:22;;;;;;;4.15;2.17;;;29.30;61.60;;;;;;6277924;22;19910;-77
2022/08/06 02:15:50;;;;;;;6.40;2.10;;;29.30;61.60;;;;;;6250569;22;19999;-77
2022/08/06 02:18:17;;;;;;;2.45;2.00;;;29.30;61.60;;;;;;6277764;22;19996;-77
2022/08/06 02:20:51;;;;;;;5.85;2.47;;;29.30;61.60;;;;;;6277007;22;20083;-77
2022/08/06 02:23:21;;;;;;;5.35;2.10;;;29.30;61.70;;;;;;6277590;22;19999;-76
2022/08/06 02:25:49;;;;;;;1.95;1.60;;;29.20;61.50;;;;;;6277661;22;20007;-76
2022/08/06 02:28:18;;;;;;;3.97;2.28;;;29.20;61.50;;;;;;6276853;22;20007;-76
2022/08/06 02:30:46;;;;;;;5.95;2.05;;;29.30;61.50;;;;;;6277806;22;20003;-77
2022/08/06 02:33:13;;;;;;;3.50;2.00;;;29.20;61.40;;;;;;6277494;22;20026;-77
2022/08/06 02:35:49;;;;;;;3.95;2.22;;;29.20;61.30;;;;;;6277752;22;20007;-78
2022/08/06 02:38:40;;;;;;;2.95;2.45;;;29.20;61.50;;;;;;6250608;22;20384;-76
2022/08/06 02:41:18;;;;;;;2.30;2.08;;;29.20;61.20;;;;;;6277406;22;20076;-76
2022/08/06 02:43:56;;;;;;;4.55;2.33;;;29.10;61.50;;;;;;6277164;22;20007;-74
2022/08/06 02:46:38;;;;;;;4.88;2.38;;;29.00;61.40;;;;;;6249432;22;20377;-82
2022/08/06 02:49:11;;;;;;;4.85;2.53;;;29.00;61.30;;;;;;6250634;22;20014;-81
2022/08/06 02:51:43;;;;;;;3.40;2.25;;;29.00;61.30;;;;;;6277607;22;20450;-81
2022/08/06 02:54:14;;;;;;;3.15;2.30;;;29.00;61.30;;;;;;6277103;22;20368;-81
2022/08/06 02:56:44;;;;;;;5.63;2.42;;;29.10;61.30;;;;;;6276635;22;20052;-82
2022/08/06 02:59:11;;;;;;;5.72;2.85;;;29.10;61.20;;;;;;6277364;22;20418;-82
2022/08/06 03:01:41;;;;;;;2.22;1.92;;;29.10;61.10;;;;;;6275739;22;20000;-83
2022/08/06 03:04:08;;;;;;;4.50;1.75;;;29.10;61.10;;;;;;6277010;22;20004;-83
2022/08/06 03:06:37;;;;;;;5.97;2.15;;;29.10;61.20;;;;;;6249266;22;20007;-83
2022/08/06 03:09:05;;;;;;;3.45;2.28;;;29.10;61.10;;;;;;6276074;22;20015;-82
2022/08/06 03:11:33;;;;;;;2.75;2.30;;;29.10;61.10;;;;;;6276845;22;20000;-82
2022/08/06 03:14:02;;;;;;;2.17;1.80;;;29.10;61.10;;;;;;6277221;22;20004;-81
2022/08/06 03:16:33;;;;;;;2.53;1.87;;;29.00;61.00;;;;;;6277289;22;20002;-82
2022/08/06 03:19:00;;;;;;;2.58;2.25;;;29.00;61.10;;;;;;6277261;22;20031;-81
2022/08/06 03:21:29;;;;;;;5.80;2.15;;;29.00;61.20;;;;;;6249837;22;20681;-82
2022/08/06 03:23:57;;;;;;;4.07;2.63;;;29.00;61.10;;;;;;6277468;22;20000;-82
2022/08/06 03:26:26;;;;;;;7.38;2.80;;;28.90;61.10;;;;;;6277137;22;20054;-84
2022/08/06 03:28:55;;;;;;;4.50;2.38;;;28.90;61.20;;;;;;6250699;22;20004;-83
2022/08/06 03:31:22;;;;;;;3.85;2.38;;;28.90;61.10;;;;;;6277397;22;20307;-83
2022/08/06 03:33:49;;;;;;;2.83;2.13;;;28.90;61.10;;;;;;6276968;22;20000;-83
2022/08/06 03:36:16;;;;;;;4.97;2.17;;;28.90;61.40;;;;;;6277777;22;20027;-84
2022/08/06 03:38:58;;;;;;;3.30;2.08;;;28.80;61.30;;;;;;6277699;22;20006;-85
2022/08/06 03:41:25;;;;;;;2.97;2.28;;;28.90;61.20;;;;;;6276604;22;20316;-83
2022/08/06 03:43:51;;;;;;;4.20;1.85;;;28.80;61.20;;;;;;6277219;22;20079;-83
2022/08/06 03:46:24;;;;;;;5.78;2.45;;;28.90;61.20;;;;;;6277263;22;20027;-85
2022/08/06 03:48:51;;;;;;;3.92;2.13;;;28.90;61.30;;;;;;6277447;22;20091;-84
2022/08/06 03:51:20;;;;;;;5.93;2.42;;;28.80;61.30;;;;;;6277335;22;20011;-85
2022/08/06 03:53:48;;;;;;;12.52;2.40;;;28.70;61.30;;;;;;6277310;22;20003;-82
2022/08/06 03:56:20;;;;;;;3.00;1.67;;;28.80;61.50;;;;;;6276588;22;20003;-82
2022/08/06 03:58:47;;;;;;;3.05;1.98;;;28.70;61.70;;;;;;6276890;22;20000;-82
2022/08/06 04:01:17;;;;;;;4.10;2.13;;;28.70;61.70;;;;;;6276430;22;20003;-82
2022/08/06 04:03:45;;;;;;;6.25;2.90;;;28.70;61.70;;;;;;6277630;22;20007;-83
2022/08/06 04:06:11;;;;;;;3.08;2.17;;;28.70;61.70;;;;;;6277010;22;20003;-83
2022/08/06 04:08:38;;;;;;;3.95;2.78;;;28.70;61.80;;;;;;6276424;22;20007;-84
2022/08/06 04:11:05;;;;;;;6.75;4.10;;;28.70;61.80;;;;;;6276765;22;20126;-85
2022/08/06 04:13:31;;;;;;;12.15;6.40;;;28.60;61.70;;;;;;6277997;22;20006;-82
2022/08/06 04:15:57;;;;;;;7.95;4.50;;;28.60;61.80;;;;;;6249360;22;20338;-84
2022/08/06 04:18:30;;;;;;;6.05;4.18;;;28.60;61.80;;;;;;6276436;22;20010;-83
2022/08/06 04:20:59;;;;;;;5.65;4.28;;;28.50;61.80;;;;;;6276605;22;20003;-83
2022/08/06 04:23:25;;;;;;;7.87;4.17;;;28.60;62.00;;;;;;6277316;22;20000;-83
2022/08/06 04:25:55;;;;;;;5.80;3.25;;;28.60;62.30;;;;;;6276766;22;20004;-84
2022/08/06 04:28:24;;;;;;;6.43;3.35;;;28.70;62.10;;;;;;6276662;22;20026;-84
2022/08/06 04:30:50;;;;;;;4.18;3.25;;;28.60;62.00;;;;;;6275913;22;20303;-84
2022/08/06 04:33:22;;;;;;;4.30;3.50;;;28.60;62.00;;;;;;6276949;22;20321;-83
2022/08/06 04:35:49;;;;;;;3.95;2.63;;;28.50;62.10;;;;;;6249375;22;20010;-82
2022/08/06 04:38:16;;;;;;;4.20;2.60;;;28.50;62.10;;;;;;6276600;22;19999;-84
2022/08/06 04:40:42;;;;;;;6.88;4.13;;;28.50;62.10;;;;;;6276004;22;20078;-84
2022/08/06 04:43:09;;;;;;;5.68;2.78;;;28.40;62.20;;;;;;6275621;22;20050;-84
2022/08/06 04:45:38;;;;;;;5.65;2.80;;;28.50;62.10;;;;;;6276070;22;20071;-79
2022/08/06 04:48:07;;;;;;;5.75;2.97;;;28.50;62.20;;;;;;6276106;22;20068;-84
2022/08/06 04:50:35;;;;;;;7.20;2.88;;;28.60;62.10;;;;;;6276655;22;20314;-83
2022/08/06 04:53:13;;;;;;;6.32;3.40;;;28.60;61.90;;;;;;6276652;22;20015;-82
2022/08/06 04:55:40;;;;;;;4.18;2.95;;;28.60;61.90;;;;;;6274936;22;20006;-82
2022/08/06 04:58:08;;;;;;;6.68;2.83;;;28.60;61.70;;;;;;6276221;22;20000;-77
2022/08/06 05:00:37;;;;;;;3.60;2.70;;;28.70;62.10;;;;;;6276284;22;19999;-83
2022/08/06 05:03:02;;;;;;;5.28;2.92;;;28.70;62.00;;;;;;6276820;22;20007;-82
2022/08/06 05:05:33;;;;;;;7.80;3.20;;;28.80;62.40;;;;;;6248809;22;20061;-83
2022/08/06 05:08:01;;;;;;;3.47;2.65;;;28.80;62.50;;;;;;6274401;22;20003;-83
2022/08/06 05:10:35;;;;;;;4.13;2.85;;;28.90;62.90;;;;;;6274217;22;20019;-83
2022/08/06 05:13:02;;;;;;;7.68;2.90;;;28.90;63.10;;;;;;6274120;22;20003;-81
2022/08/06 05:15:39;;;;;;;4.20;3.00;;;28.90;62.90;;;;;;6275433;22;20000;-81
2022/08/06 05:18:19;;;;;;;5.13;3.15;;;28.90;62.90;;;;;;6274368;22;20075;-81
2022/08/06 05:20:51;;;;;;;7.40;2.97;;;28.90;62.50;;;;;;6274599;22;19995;-81
2022/08/06 05:23:40;;;;;;;5.30;2.63;;;28.90;62.00;;;;;;6274900;22;20008;-81
2022/08/06 05:26:07;;;;;;;4.30;3.00;;;29.00;62.60;;;;;;6273442;22;20421;-80
2022/08/06 05:28:33;;;;;;;3.97;2.83;;;29.00;62.00;;;;;;6273952;22;20006;-80
2022/08/06 05:30:59;;;;;;;3.95;2.90;;;28.90;61.80;;;;;;6274007;22;20004;-81
2022/08/06 05:33:36;;;;;;;4.50;2.47;;;28.90;61.40;;;;;;6273325;22;20006;-80
2022/08/06 05:36:04;;;;;;;6.75;3.25;;;28.90;61.30;;;;;;6273637;22;20441;-80
2022/08/06 05:38:33;;;;;;;8.43;2.60;;;28.80;60.10;;;;;;6271626;22;20075;-80
2022/08/06 05:40:58;;;;;;;7.63;2.83;;;28.90;60.60;;;;;;6274713;22;20000;-80
2022/08/06 05:43:25;;;;;;;3.03;2.13;;;28.80;60.20;;;;;;6274852;22;20373;-79
2022/08/06 05:45:56;;;;;;;3.88;2.65;;;28.80;60.50;;;;;;6275020;22;20000;-80
2022/08/06 05:48:23;;;;;;;2.47;2.20;;;28.80;60.70;;;;;;6276397;22;20007;-80
2022/08/06 05:50:59;;;;;;;3.97;1.75;;;28.80;60.50;;;;;;6276841;22;20531;-79
2022/08/06 05:53:30;;;;;;;2.85;2.60;;;28.80;59.10;;;;;;6276654;22;20078;-78
2022/08/06 05:56:09;;;;;;;3.15;2.00;;;28.80;58.90;;;;;;6250005;22;20004;-78
2022/08/06 05:58:44;;;;;;;3.20;1.92;;;28.80;58.50;;;;;;6276462;22;20006;-81
2022/08/06 06:01:11;;;;;;;1.98;1.80;;;28.90;58.80;;;;;;6274743;22;19999;-79
2022/08/06 06:03:39;;;;;;;2.70;1.77;;;28.90;58.30;;;;;;6275070;22;20038;-76
2022/08/06 06:06:05;;;;;;;4.90;2.30;;;28.90;58.40;;;;;;6276701;22;20402;-76
2022/08/06 06:08:31;;;;;;;3.75;1.55;;;28.90;57.70;;;;;;6275688;22;20074;-76
2022/08/06 06:10:57;;;;;;;2.58;1.70;;;28.90;58.10;;;;;;6274755;22;20351;-76
2022/08/06 06:13:24;;;;;;;1.73;1.50;;;29.00;58.30;;;;;;6276316;22;20008;-74
2022/08/06 06:16:03;;;;;;;2.30;1.92;;;29.10;58.30;;;;;;6276408;22;19996;-74
2022/08/06 06:18:52;;;;;;;3.92;1.90;;;29.20;59.40;;;;;;6276053;22;20078;-74
2022/08/06 06:21:34;;;;;;;5.32;2.40;;;29.20;58.00;;;;;;6248816;22;20073;-74
2022/08/06 06:24:21;;;;;;;5.15;2.15;;;29.20;57.40;;;;;;6276824;22;20006;-80
2022/08/06 06:26:55;;;;;;;3.90;1.58;;;29.20;57.40;;;;;;6275380;22;20023;-80
2022/08/06 06:29:48;;;;;;;3.38;1.90;;;29.30;57.90;;;;;;6275631;22;20003;-80
2022/08/06 06:32:27;;;;;;;5.40;2.08;;;29.30;57.60;;;;;;6275677;22;20016;-80
2022/08/06 06:35:10;;;;;;;3.05;1.58;;;29.40;57.80;;;;;;6272444;22;20007;-81
2022/08/06 06:38:07;;;;;;;3.45;2.03;;;29.50;57.80;;;;;;6245344;22;20011;-80
2022/08/06 06:40:48;;;;;;;3.53;2.00;;;29.50;57.70;;;;;;6270034;22;20004;-80
2022/08/06 06:43:39;;;;;;;6.05;2.25;;;29.50;58.00;;;;;;6267635;22;20079;-80
2022/08/06 06:46:29;;;;;;;2.50;1.67;;;29.60;58.30;;;;;;6256095;22;20065;-80
2022/08/06 06:49:22;;;;;;;3.58;2.30;;;29.70;58.80;;;;;;6266698;22;20008;-80
2022/08/06 06:51:56;;;;;;;6.07;2.08;;;29.70;59.40;;;;;;6232404;22;20530;-80
2022/08/06 06:54:31;;;;;;;2.80;1.70;;;29.80;59.10;;;;;;6268224;22;20666;-80
2022/08/06 06:56:57;;;;;;;3.58;2.20;;;29.80;59.00;;;;;;6270824;22;20463;-80
2022/08/06 06:59:39;;;;;;;5.60;2.40;;;29.80;59.10;;;;;;6269249;22;20053;-79
2022/08/06 07:02:18;;;;;;;3.58;1.70;;;29.80;58.90;;;;;;6268137;22;20029;-80
2022/08/06 07:04:46;;;;;;;3.70;2.40;;;29.80;59.00;;;;;;6239945;22;20039;-80
2022/08/06 07:07:13;;;;;;;3.55;2.40;;;29.80;58.90;;;;;;6268215;22;20373;-80
2022/08/06 07:09:40;;;;;;;2.38;1.70;;;29.80;58.50;;;;;;6267169;22;20016;-80
2022/08/06 07:12:08;;;;;;;2.25;1.60;;;29.80;58.60;;;;;;6268798;22;20090;-79
2022/08/06 07:14:37;;;;;;;1.88;1.48;;;29.80;58.60;;;;;;6269453;22;20003;-80
2022/08/06 07:17:05;;;;;;;2.93;1.73;;;29.90;58.50;;;;;;6268156;22;20079;-80
2022/08/06 07:19:31;;;;;;;2.88;1.80;;;30.00;58.90;;;;;;6267464;22;19995;-80
2022/08/06 07:21:58;;;;;;;5.28;2.05;;;30.00;58.10;;;;;;6268479;22;20007;-80
2022/08/06 07:24:26;;;;;;;2.78;1.60;;;30.10;58.30;;;;;;6242970;22;20065;-79
2022/08/06 07:26:54;;;;;;;6.93;1.90;;;30.10;58.10;;;;;;6271864;22;20088;-79
2022/08/06 07:29:20;;;;;;;4.22;2.13;;;30.20;58.00;;;;;;6270510;22;20438;-79
2022/08/06 07:31:47;;;;;;;2.75;2.00;;;30.10;57.60;;;;;;6266973;22;20100;-79
2022/08/06 07:34:14;;;;;;;3.35;1.95;;;30.20;57.80;;;;;;6268012;22;20114;-79
2022/08/06 07:36:46;;;;;;;2.53;1.65;;;30.30;57.70;;;;;;6267027;22;20438;-79
2022/08/06 07:39:17;;;;;;;4.72;2.10;;;30.30;57.50;;;;;;6266903;22;20003;-79
2022/08/06 07:41:45;;;;;;;1.65;1.50;;;30.30;57.50;;;;;;6267735;22;20722;-79
2022/08/06 07:44:12;;;;;;;4.57;1.65;;;30.30;57.70;;;;;;6241137;22;20015;-79
2022/08/06 07:46:41;;;;;;;2.65;1.67;;;30.50;57.80;;;;;;6267616;22;20446;-79
2022/08/06 07:49:09;;;;;;;4.80;1.70;;;30.50;57.60;;;;;;6271320;22;20425;-80
2022/08/06 07:51:39;;;;;;;3.33;1.70;;;30.60;56.80;;;;;;6268746;22;20614;-79
2022/08/06 07:54:09;;;;;;;3.38;1.83;;;30.60;56.70;;;;;;6266034;22;20008;-80
2022/08/06 07:56:37;;;;;;;2.13;1.65;;;30.70;56.30;;;;;;6266256;22;20075;-79
2022/08/06 07:59:05;;;;;;;6.25;1.88;;;30.80;56.10;;;;;;6267564;22;20326;-80
2022/08/06 08:01:32;;;;;;;1.83;1.65;;;30.90;55.80;;;;;;6269842;22;20100;-80
2022/08/06 08:06:44;;;;;;;3.40;1.80;;;31.00;55.60;;;;;;6269421;22;20018;-80
2022/08/06 08:09:18;;;;;;;3.20;1.77;;;31.10;55.30;;;;;;6269425;22;20098;-80
2022/08/06 08:11:46;;;;;;;3.25;1.30;;;31.10;55.30;;;;;;6269003;22;20845;-79
2022/08/06 08:14:13;;;;;;;2.97;1.40;;;31.20;55.50;;;;;;6268314;22;20034;-80
2022/08/06 08:16:40;;;;;;;1.52;1.25;;;31.30;56.00;;;;;;6267916;22;20482;-80
2022/08/06 08:19:33;;;;;;;2.95;1.50;;;31.40;56.20;;;;;;6268235;22;20004;-79
2022/08/06 08:22:15;;;;;;;8.57;2.00;;;31.50;56.40;;;;;;6266478;22;20010;-80
2022/08/06 08:24:44;;;;;;;3.35;1.67;;;31.60;55.50;;;;;;6271616;22;20493;-80
2022/08/06 08:27:10;;;;;;;1.80;1.55;;;31.70;54.70;;;;;;6271913;22;20038;-80
2022/08/06 08:29:37;;;;;;;5.47;2.00;;;31.80;54.00;;;;;;6268222;22;20074;-80
2022/08/06 08:32:04;;;;;;;2.42;1.45;;;31.80;54.60;;;;;;6271032;22;20007;-80
2022/08/06 08:34:31;;;;;;;2.00;1.60;;;31.90;54.20;;;;;;6266963;22;20014;-81
2022/08/06 08:36:56;;;;;;;4.30;1.58;;;32.00;53.20;;;;;;6266142;22;20030;-80
2022/08/06 08:39:22;;;;;;;2.75;1.65;;;32.00;53.80;;;;;;6267261;22;20414;-80
2022/08/06 08:42:00;;;;;;;4.15;2.08;;;32.00;54.30;;;;;;6240432;22;20030;-80
2022/08/06 08:44:27;;;;;;;6.68;1.77;;;32.00;52.60;;;;;;6267323;22;20007;-82
2022/08/06 08:46:57;;;;;;;2.22;1.80;;;32.00;53.10;;;;;;6273191;22;20303;-81
2022/08/06 08:49:45;;;;;;;5.00;2.35;;;32.10;53.70;;;;;;6248199;22;20008;-80
2022/08/06 08:52:32;;;;;;;2.10;1.90;;;32.20;53.30;;;;;;6274788;22;20080;-81
2022/08/06 08:55:04;;;;;;;2.63;1.50;;;32.30;51.80;;;;;;6274109;22;20004;-81
2022/08/06 08:57:31;;;;;;;2.30;2.10;;;32.50;53.30;;;;;;6274352;22;20004;-81
2022/08/06 08:59:56;;;;;;;2.20;2.00;;;32.60;52.40;;;;;;6273533;22;20074;-80
2022/08/06 09:02:26;;;;;;;2.15;1.45;;;32.70;50.90;;;;;;6271428;22;20415;-80
2022/08/06 09:04:52;;;;;;;;;;;32.80;52.30;;;;;;6275626;22;20012;-79
2022/08/06 09:07:19;;;;;;;1.92;1.63;;;33.00;52.20;;;;;;6272651;22;19899;-79
2022/08/06 09:09:47;;;;;;;4.90;2.20;;;33.00;50.50;;;;;;6273109;22;20349;-79
2022/08/06 09:12:13;;;;;;;1.90;1.42;;;33.00;50.20;;;;;;6274312;22;20438;-78
2022/08/06 09:14:43;;;;;;;2.53;1.50;;;33.10;51.10;;;;;;6273554;22;20003;-81
2022/08/06 09:17:12;;;;;;;3.90;1.92;;;33.20;51.90;;;;;;6247229;22;20000;-81
2022/08/06 09:19:39;;;;;;;1.80;1.70;;;33.40;51.50;;;;;;6246834;22;20012;-83
2022/08/06 09:22:05;;;;;;;2.35;1.40;;;33.40;51.70;;;;;;6273083;22;20035;-81
2022/08/06 09:24:32;;;;;;;2.72;1.80;;;33.60;50.90;;;;;;6274412;22;20155;-80
2022/08/06 09:27:06;;;;;;;2.63;1.70;;;33.60;47.10;;;;;;6273733;22;20014;-81
2022/08/06 09:29:35;;;;;;;2.35;1.58;;;33.60;47.00;;;;;;6273848;22;20026;-81
2022/08/06 09:32:06;;;;;;;1.45;1.30;;;33.80;48.30;;;;;;6273627;22;20006;-80
2022/08/06 09:34:37;;;;;;;2.25;1.40;;;33.90;49.00;;;;;;6272588;22;20018;-80
2022/08/06 09:37:04;;;;;;;1.88;1.42;;;34.00;49.20;;;;;;6246011;22;20004;-81
2022/08/06 09:39:31;;;;;;;1.65;1.50;;;34.20;48.50;;;;;;6274642;22;20007;-80
2022/08/06 09:41:57;;;;;;;3.70;1.80;;;34.30;48.60;;;;;;6246837;22;20069;-81
2022/08/06 09:44:23;;;;;;;3.97;1.85;;;34.50;48.50;;;;;;6273085;22;20338;-79
2022/08/06 09:46:49;;;;;;;6.82;1.85;;;34.60;47.20;;;;;;6273894;22;19999;-81
2022/08/06 09:49:17;;;;;;;1.73;1.55;;;34.70;46.70;;;;;;6273177;22;20004;-80
2022/08/06 09:51:43;;;;;;;2.05;1.58;;;34.80;46.30;;;;;;6273176;22;20011;-80
2022/08/06 09:54:15;;;;;;;1.45;1.30;;;34.80;47.10;;;;;;6272896;22;20003;-79
2022/08/06 09:56:43;;;;;;;3.33;1.60;;;34.90;47.30;;;;;;6244513;22;20003;-80
2022/08/06 09:59:10;;;;;;;2.35;1.80;;;35.10;47.20;;;;;;6273527;22;20295;-81
2022/08/06 10:01:40;;;;;;;1.75;1.65;;;35.20;47.10;;;;;;6272827;22;20000;-80
2022/08/06 10:04:06;;;;;;;1.67;1.45;;;35.30;47.00;;;;;;6245701;22;20004;-80
2022/08/06 10:06:32;;;;;;;1.83;1.30;;;35.50;47.00;;;;;;6274569;22;20007;-82
2022/08/06 10:09:10;;;;;;;2.40;1.90;;;35.50;46.60;;;;;;6274293;22;20568;-81
2022/08/06 10:11:40;;;;;;;1.73;1.48;;;35.50;43.70;;;;;;6246885;22;20018;-80
2022/08/06 10:14:22;;;;;;;3.67;1.58;;;35.60;45.60;;;;;;6246338;22;20008;-80
2022/08/06 10:17:08;;;;;;;1.80;1.70;;;35.60;45.70;;;;;;6273814;22;20000;-80
2022/08/06 10:19:35;;;;;;;5.15;1.70;;;35.80;44.80;;;;;;6272183;22;20008;-81
2022/08/06 10:22:12;;;;;;;1.67;1.58;;;35.90;44.90;;;;;;6272740;22;20023;-81
2022/08/06 10:24:45;;;;;;;1.88;1.40;;;36.00;45.00;;;;;;6273010;22;20000;-80
2022/08/06 10:27:21;;;;;;;2.85;1.50;;;36.10;44.90;;;;;;6275049;22;20000;-80
2022/08/06 10:29:47;;;;;;;2.75;1.60;;;36.10;44.60;;;;;;6247501;22;20413;-80
2022/08/06 10:32:16;;;;;;;1.92;1.58;;;36.10;44.70;;;;;;6275911;22;20008;-80
2022/08/06 10:34:46;;;;;;;1.48;1.38;;;36.10;44.40;;;;;;6277084;22;20311;-80
2022/08/06 10:37:13;;;;;;;4.15;1.80;;;36.30;44.60;;;;;;6249477;22;20007;-85
2022/08/06 10:39:46;;;;;;;1.98;1.77;;;36.40;44.70;;;;;;6276894;22;20023;-80
2022/08/06 10:42:12;;;;;;;3.63;1.95;;;36.50;44.40;;;;;;6249287;22;20476;-80
2022/08/06 10:44:40;;;;;;;2.25;1.60;;;36.50;44.20;;;;;;6248513;22;20390;-79
2022/08/06 10:47:06;;;;;;;3.85;2.28;;;36.60;44.60;;;;;;6276453;22;20010;-79
2022/08/06 10:49:33;;;;;;;2.40;2.03;;;36.70;44.10;;;;;;6275738;22;20008;-79
2022/08/06 10:52:00;;;;;;;1.88;1.65;;;36.80;44.10;;;;;;6275493;22;20086;-79
2022/08/06 10:54:26;;;;;;;2.47;1.98;;;37.00;44.20;;;;;;6276442;22;20004;-78
2022/08/06 10:56:54;;;;;;;3.47;2.00;;;37.10;44.30;;;;;;6250494;22;19999;-80
2022/08/06 10:59:20;;;;;;;1.75;1.63;;;37.20;43.70;;;;;;6276210;22;20271;-79
2022/08/06 11:01:55;;;;;;;1.73;1.63;;;37.40;43.80;;;;;;6276364;22;20345;-80
2022/08/06 11:04:42;;;;;;;2.20;1.70;;;37.60;43.80;;;;;;6276559;22;20379;-79
2022/08/06 11:07:11;;;;;;;3.38;2.10;;;37.80;43.80;;;;;;6275977;22;20027;-79
2022/08/06 11:10:09;;;;;;;3.67;1.90;;;37.90;43.70;;;;;;6256036;22;20030;-79
2022/08/06 11:12:56;;;;;;;1.70;1.60;;;38.10;42.80;;;;;;6275996;22;20000;-79
2022/08/06 11:15:23;;;;;;;1.70;1.60;;;38.10;42.10;;;;;;6276367;22;20038;-79
2022/08/06 11:17:52;;;;;;;4.88;2.10;;;38.30;42.40;;;;;;6276168;22;20079;-79
2022/08/06 11:20:33;;;;;;;1.92;1.70;;;38.40;42.30;;;;;;6274514;22;20040;-79
2022/08/06 11:23:21;;;;;;;1.75;1.65;;;38.60;41.10;;;;;;6275558;22;20347;-80
2022/08/06 11:25:52;;;;;;;2.03;1.70;;;38.70;40.90;;;;;;6275273;22;20000;-79
2022/08/06 11:28:28;;;;;;;1.80;1.70;;;38.90;41.20;;;;;;6275799;22;20082;-81
2022/08/06 11:30:56;;;;;;;2.88;1.83;;;39.10;41.20;;;;;;6274377;22;20004;-81
2022/08/06 11:33:42;;;;;;;5.82;1.48;;;39.30;41.40;;;;;;6275725;22;20027;-81
2022/08/06 11:36:25;;;;;;;3.33;2.00;;;39.50;41.10;;;;;;6275822;22;20027;-80
2022/08/06 11:38:53;;;;;;;1.70;1.60;;;39.80;41.00;;;;;;6275495;22;20049;-81
2022/08/06 11:41:24;;;;;;;3.92;1.60;;;40.00;41.00;;;;;;6275775;22;20027;-72
2022/08/06 11:43:53;;;;;;;2.58;1.90;;;40.10;40.50;;;;;;6273307;22;20003;-73
2022/08/06 11:46:40;;;;;;;3.17;1.95;;;40.30;39.60;;;;;;6275028;22;20025;-72
2022/08/06 11:49:12;;;;;;;1.67;1.58;;;40.60;39.90;;;;;;6273749;22;20090;-72
2022/08/06 11:51:58;;;;;;;5.13;1.83;;;40.80;40.00;;;;;;6275060;22;20102;-72
2022/08/06 11:54:35;;;;;;;4.28;2.10;;;41.10;40.20;;;;;;6274701;22;20011;-73
2022/08/06 11:57:01;;;;;;;2.65;1.40;;;41.40;38.40;;;;;;6277161;22;20006;-72
2022/08/06 11:59:36;;;;;;;3.65;2.08;;;41.60;38.80;;;;;;6277614;22;19999;-72
2022/08/06 12:02:13;;;;;;;1.95;1.70;;;41.50;38.40;;;;;;6277723;22;20075;-72
2022/08/06 12:04:44;;;;;;;3.50;1.70;;;41.70;38.80;;;;;;6277014;22;20445;-72
2022/08/06 12:07:34;;;;;;;1.92;1.63;;;41.80;38.50;;;;;;6276795;22;20007;-72
2022/08/06 12:10:06;;;;;;;2.22;1.77;;;42.00;39.00;;;;;;6274967;22;20016;-72
2022/08/06 12:12:50;;;;;;;4.22;1.80;;;42.20;38.80;;;;;;6275240;22;20306;-72
2022/08/06 12:15:16;;;;;;;4.28;1.88;;;42.30;38.40;;;;;;6274327;22;20303;-73
2022/08/06 12:17:57;;;;;;;3.05;1.90;;;42.40;38.30;;;;;;6274719;22;20022;-72
2022/08/06 12:20:41;;;;;;;1.65;1.55;;;42.50;38.90;;;;;;6275129;22;20004;-72
2022/08/06 12:23:15;;;;;;;2.65;1.92;;;42.50;37.40;;;;;;6249840;22;20057;-72
2022/08/06 12:25:43;;;;;;;4.57;1.88;;;42.60;38.60;;;;;;6274638;22;20003;-72
2022/08/06 12:28:11;;;;;;;1.73;1.63;;;42.70;38.60;;;;;;6247056;22;20000;-72
2022/08/06 12:30:43;;;;;;;2.00;1.80;;;42.80;38.20;;;;;;6273743;22;19996;-72
2022/08/06 12:33:10;;;;;;;3.58;1.73;;;42.80;38.00;;;;;;6273099;22;20342;-73
2022/08/06 12:35:47;;;;;;;8.18;2.50;;;42.90;38.10;;;;;;6273844;22;20003;-72
2022/08/06 12:38:12;;;;;;;2.42;1.90;;;42.90;37.40;;;;;;6273426;22;20315;-72
2022/08/06 12:40:38;;;;;;;2.47;1.45;;;42.90;37.70;;;;;;6273996;22;20038;-72
2022/08/06 12:43:04;;;;;;;5.43;1.85;;;42.90;37.90;;;;;;6274330;22;20069;-72
2022/08/06 12:45:31;;;;;;;3.65;2.00;;;42.90;37.20;;;;;;6247260;22;20376;-72
2022/08/06 12:48:10;;;;;;;1.67;1.58;;;42.90;37.00;;;;;;6274504;22;20517;-72
2022/08/06 12:50:39;;;;;;;2.03;1.88;;;42.90;36.80;;;;;;6273717;22;20003;-72
2022/08/06 12:53:14;;;;;;;1.90;1.63;;;42.90;36.70;;;;;;6273695;22;20003;-73
2022/08/06 12:55:55;;;;;;;2.08;1.70;;;43.10;36.60;;;;;;6248056;22;20536;-72
2022/08/06 12:58:30;;;;;;;2.25;2.05;;;43.10;36.60;;;;;;6274145;22;19996;-72
2022/08/06 13:00:59;;;;;;;2.50;1.70;;;43.10;34.90;;;;;;6247500;22;20003;-72
2022/08/06 13:03:26;;;;;;;2.13;1.80;;;43.10;35.90;;;;;;6274038;22;20459;-72
2022/08/06 13:05:58;;;;;;;1.95;1.80;;;43.00;35.70;;;;;;6275372;22;20445;-73
2022/08/06 13:08:25;;;;;;;3.38;1.70;;;42.90;34.30;;;;;;6274527;22;20004;-72
2022/08/06 13:10:52;;;;;;;5.53;1.60;;;42.90;34.90;;;;;;6274141;22;20467;-72